sensor_id;sensor_type;location;lat;lon;timestamp;pressure;altitude;pressure_sealevel;temperature;humidity
11329;BME280;5719;42.714;23.732;2023-12-14T00:01:29;93441.91;;;4.36;100.00
11329;BME280;5719;42.714;23.732;2023-12-14T00:03:56;93448.66;;;4.37;100.00
11329;BME280;5719;42.714;23.732;2023-12-14T00:06:23;93449.16;;;4.42;100.00
11329;BME280;5719;42.714;23.732;2023-12-14T00:22:31;93441.22;;;4.07;100.00
11329;BME280;5719;42.714;23.732;2023-12-14T00:24:58;93449.06;;;4.04;100.00
11329;BME280;5719;42.714;23.732;2023-12-14T00:27:25;93444.66;;;4.06;100.00
11329;BME280;5719;42.714;23.732;2023-12-14T00:29:52;93431.47;;;4.00;100.00
11329;BME280;5719;42.714;23.732;2023-12-14T00:32:18;93429.09;;;3.97;100.00
11329;BME280;5719;42.714;23.732;2023-12-14T00:34:45;93430.09;;;3.94;100.00
11329;BME280;5719;42.714;23.732;2023-12-14T00:37:12;93418.94;;;3.82;100.00
11329;BME280;5719;42.714;23.732;2023-12-14T00:39:43;93424.53;;;3.75;100.00
11329;BME280;5719;42.714;23.732;2023-12-14T00:42:10;93440.84;;;3.72;100.00
11329;BME280;5719;42.714;23.732;2023-12-14T00:44:37;93438.75;;;3.65;100.00
11329;BME280;5719;42.714;23.732;2023-12-14T00:47:04;93428.25;;;3.69;100.00
11329;BME280;5719;42.714;23.732;2023-12-14T00:49:30;93425.00;;;3.67;100.00
11329;BME280;5719;42.714;23.732;2023-12-14T00:51:57;93422.25;;;3.70;100.00
11329;BME280;5719;42.714;23.732;2023-12-14T01:01:09;93439.22;;;3.98;100.00
11329;BME280;5719;42.714;23.732;2023-12-14T01:03:36;93425.75;;;4.09;100.00
11329;BME280;5719;42.714;23.732;2023-12-14T01:06:03;93423.84;;;4.25;100.00
11329;BME280;5719;42.714;23.732;2023-12-14T01:08:30;93422.34;;;4.35;100.00
11329;BME280;5719;42.714;23.732;2023-12-14T01:10:56;93426.75;;;4.45;100.00
11329;BME280;5719;42.714;23.732;2023-12-14T01:13:23;93422.59;;;4.57;100.00
11329;BME280;5719;42.714;23.732;2023-12-14T01:15:50;93425.56;;;4.64;100.00
11329;BME280;5719;42.714;23.732;2023-12-14T01:18:18;93427.81;;;4.68;100.00
11329;BME280;5719;42.714;23.732;2023-12-14T01:20:45;93433.47;;;4.73;100.00
11329;BME280;5719;42.714;23.732;2023-12-14T01:23:12;93422.09;;;4.65;100.00
11329;BME280;5719;42.714;23.732;2023-12-14T01:32:34;93434.69;;;4.55;100.00
11329;BME280;5719;42.714;23.732;2023-12-14T01:35:03;93424.59;;;4.52;100.00
11329;BME280;5719;42.714;23.732;2023-12-14T01:37:30;93437.03;;;4.58;100.00
11329;BME280;5719;42.714;23.732;2023-12-14T01:39:57;93436.81;;;4.61;100.00
11329;BME280;5719;42.714;23.732;2023-12-14T01:42:24;93445.66;;;4.70;100.00
11329;BME280;5719;42.714;23.732;2023-12-14T01:44:51;93419.03;;;4.72;100.00
11329;BME280;5719;42.714;23.732;2023-12-14T01:47:18;93425.97;;;4.83;100.00
11329;BME280;5719;42.714;23.732;2023-12-14T01:49:45;93423.34;;;4.84;100.00
11329;BME280;5719;42.714;23.732;2023-12-14T01:52:13;93443.88;;;4.58;100.00
11329;BME280;5719;42.714;23.732;2023-12-14T01:54:40;93437.13;;;4.57;100.00
11329;BME280;5719;42.714;23.732;2023-12-14T01:57:06;93432.28;;;4.52;100.00
11329;BME280;5719;42.714;23.732;2023-12-14T02:10:32;93412.63;;;4.40;100.00
11329;BME280;5719;42.714;23.732;2023-12-14T02:13:01;93417.97;;;4.37;100.00
11329;BME280;5719;42.714;23.732;2023-12-14T02:15:28;93420.06;;;4.18;100.00
11329;BME280;5719;42.714;23.732;2023-12-14T02:17:55;93400.41;;;4.18;100.00
11329;BME280;5719;42.714;23.732;2023-12-14T02:20:22;93411.34;;;4.20;100.00
11329;BME280;5719;42.714;23.732;2023-12-14T02:22:50;93418.13;;;4.34;100.00
11329;BME280;5719;42.714;23.732;2023-12-14T02:25:17;93394.72;;;4.40;100.00
11329;BME280;5719;42.714;23.732;2023-12-14T02:27:44;93395.44;;;4.42;100.00
11329;BME280;5719;42.714;23.732;2023-12-14T02:30:12;93407.41;;;4.41;100.00
11329;BME280;5719;42.714;23.732;2023-12-14T02:32:39;93387.75;;;4.42;100.00
11329;BME280;5719;42.714;23.732;2023-12-14T02:38:29;93394.31;;;4.46;100.00
11329;BME280;5719;42.714;23.732;2023-12-14T02:40:56;93400.97;;;4.36;100.00
11329;BME280;5719;42.714;23.732;2023-12-14T02:43:23;93377.03;;;4.50;100.00
11329;BME280;5719;42.714;23.732;2023-12-14T02:45:50;93389.53;;;4.54;100.00
11329;BME280;5719;42.714;23.732;2023-12-14T02:48:17;93389.72;;;4.51;100.00
11329;BME280;5719;42.714;23.732;2023-12-14T02:50:44;93376.50;;;4.57;100.00
11329;BME280;5719;42.714;23.732;2023-12-14T02:53:10;93378.66;;;4.63;100.00
11329;BME280;5719;42.714;23.732;2023-12-14T02:55:38;93398.06;;;4.28;100.00
11329;BME280;5719;42.714;23.732;2023-12-14T02:58:05;93370.84;;;4.14;100.00
11329;BME280;5719;42.714;23.732;2023-12-14T03:00:32;93388.66;;;4.41;100.00
11329;BME280;5719;42.714;23.732;2023-12-14T03:02:59;93375.88;;;4.28;100.00
11329;BME280;5719;42.714;23.732;2023-12-14T03:05:25;93388.06;;;4.37;100.00
11329;BME280;5719;42.714;23.732;2023-12-14T03:14:56;93362.56;;;4.74;100.00
11329;BME280;5719;42.714;23.732;2023-12-14T03:17:23;93369.94;;;5.04;100.00
11329;BME280;5719;42.714;23.732;2023-12-14T03:19:50;93365.69;;;5.28;100.00
11329;BME280;5719;42.714;23.732;2023-12-14T03:22:17;93366.75;;;5.49;100.00
11329;BME280;5719;42.714;23.732;2023-12-14T03:24:44;93370.09;;;5.62;100.00
11329;BME280;5719;42.714;23.732;2023-12-14T03:27:10;93362.38;;;5.75;100.00
11329;BME280;5719;42.714;23.732;2023-12-14T03:29:37;93356.88;;;5.79;100.00
11329;BME280;5719;42.714;23.732;2023-12-14T03:32:06;93364.88;;;5.87;100.00
11329;BME280;5719;42.714;23.732;2023-12-14T03:34:33;93361.56;;;5.98;100.00
11329;BME280;5719;42.714;23.732;2023-12-14T03:36:59;93365.16;;;5.72;100.00
11329;BME280;5719;42.714;23.732;2023-12-14T03:56:16;93365.34;;;5.32;100.00
11329;BME280;5719;42.714;23.732;2023-12-14T03:58:43;93359.41;;;5.32;100.00
11329;BME280;5719;42.714;23.732;2023-12-14T04:01:16;93366.69;;;5.38;100.00
11329;BME280;5719;42.714;23.732;2023-12-14T04:03:42;93371.28;;;5.46;100.00
11329;BME280;5719;42.714;23.732;2023-12-14T04:06:09;93367.16;;;5.56;100.00
11329;BME280;5719;42.714;23.732;2023-12-14T04:08:37;93367.84;;;5.58;100.00
11329;BME280;5719;42.714;23.732;2023-12-14T04:11:07;93375.50;;;5.70;100.00
11329;BME280;5719;42.714;23.732;2023-12-14T04:13:38;93378.53;;;5.88;100.00
11329;BME280;5719;42.714;23.732;2023-12-14T04:16:06;93359.34;;;5.81;100.00
11329;BME280;5719;42.714;23.732;2023-12-14T04:18:33;93379.41;;;6.00;100.00
11329;BME280;5719;42.714;23.732;2023-12-14T04:21:00;93371.81;;;5.98;100.00
11329;BME280;5719;42.714;23.732;2023-12-14T04:23:27;93379.91;;;6.05;100.00
11329;BME280;5719;42.714;23.732;2023-12-14T04:25:54;93387.38;;;6.08;100.00
11329;BME280;5719;42.714;23.732;2023-12-14T04:28:20;93384.31;;;6.03;100.00
11329;BME280;5719;42.714;23.732;2023-12-14T04:30:49;93374.38;;;5.98;100.00
11329;BME280;5719;42.714;23.732;2023-12-14T04:33:15;93382.19;;;5.97;100.00
11329;BME280;5719;42.714;23.732;2023-12-14T04:35:42;93381.09;;;5.88;100.00
11329;BME280;5719;42.714;23.732;2023-12-14T04:38:09;93376.25;;;5.83;100.00
11329;BME280;5719;42.714;23.732;2023-12-14T04:40:36;93376.13;;;5.98;100.00
11329;BME280;5719;42.714;23.732;2023-12-14T05:03:14;93388.03;;;5.99;100.00
11329;BME280;5719;42.714;23.732;2023-12-14T05:05:41;93397.13;;;6.03;100.00
11329;BME280;5719;42.714;23.732;2023-12-14T05:08:07;93396.78;;;5.96;100.00
11329;BME280;5719;42.714;23.732;2023-12-14T05:10:34;93402.72;;;5.97;100.00
11329;BME280;5719;42.714;23.732;2023-12-14T05:13:01;93400.97;;;5.97;100.00
11329;BME280;5719;42.714;23.732;2023-12-14T05:15:28;93403.00;;;6.05;100.00
11329;BME280;5719;42.714;23.732;2023-12-14T05:24:39;93389.75;;;5.98;100.00
11329;BME280;5719;42.714;23.732;2023-12-14T05:27:06;93388.47;;;5.93;100.00
11329;BME280;5719;42.714;23.732;2023-12-14T05:29:33;93405.88;;;6.00;100.00
11329;BME280;5719;42.714;23.732;2023-12-14T05:32:00;93391.72;;;5.95;100.00
11329;BME280;5719;42.714;23.732;2023-12-14T05:34:26;93398.28;;;5.99;100.00
11329;BME280;5719;42.714;23.732;2023-12-14T05:36:53;93409.59;;;5.96;100.00
11329;BME280;5719;42.714;23.732;2023-12-14T05:39:20;93405.75;;;6.02;100.00
11329;BME280;5719;42.714;23.732;2023-12-14T05:41:48;93423.72;;;6.02;100.00
11329;BME280;5719;42.714;23.732;2023-12-14T05:44:15;93419.63;;;5.99;100.00
11329;BME280;5719;42.714;23.732;2023-12-14T05:46:42;93408.06;;;5.94;100.00
11329;BME280;5719;42.714;23.732;2023-12-14T05:49:09;93413.28;;;5.92;100.00
11329;BME280;5719;42.714;23.732;2023-12-14T05:51:35;93405.81;;;5.89;100.00
11329;BME280;5719;42.714;23.732;2023-12-14T05:54:04;93420.50;;;5.87;100.00
11329;BME280;5719;42.714;23.732;2023-12-14T05:56:32;93411.56;;;5.80;100.00
11329;BME280;5719;42.714;23.732;2023-12-14T05:59:00;93405.72;;;5.78;100.00
11329;BME280;5719;42.714;23.732;2023-12-14T06:01:27;93410.56;;;5.70;100.00
11329;BME280;5719;42.714;23.732;2023-12-14T06:03:53;93423.56;;;5.79;100.00
11329;BME280;5719;42.714;23.732;2023-12-14T06:06:20;93426.94;;;5.80;100.00
11329;BME280;5719;42.714;23.732;2023-12-14T06:08:48;93426.13;;;5.79;100.00
11329;BME280;5719;42.714;23.732;2023-12-14T06:11:15;93422.63;;;5.80;100.00
11329;BME280;5719;42.714;23.732;2023-12-14T06:13:41;93426.56;;;5.73;100.00
11329;BME280;5719;42.714;23.732;2023-12-14T06:16:10;93429.50;;;5.80;100.00
11329;BME280;5719;42.714;23.732;2023-12-14T06:18:39;93426.94;;;5.80;100.00
11329;BME280;5719;42.714;23.732;2023-12-14T06:21:11;93423.69;;;5.78;100.00
11329;BME280;5719;42.714;23.732;2023-12-14T06:23:38;93431.25;;;5.79;100.00
11329;BME280;5719;42.714;23.732;2023-12-14T06:26:05;93430.94;;;5.84;100.00
11329;BME280;5719;42.714;23.732;2023-12-14T06:28:32;93425.09;;;5.82;100.00
11329;BME280;5719;42.714;23.732;2023-12-14T06:30:58;93438.25;;;5.90;100.00
11329;BME280;5719;42.714;23.732;2023-12-14T06:33:28;93426.34;;;5.89;100.00
11329;BME280;5719;42.714;23.732;2023-12-14T06:35:54;93440.53;;;6.06;100.00
11329;BME280;5719;42.714;23.732;2023-12-14T06:38:21;93440.13;;;6.12;100.00
11329;BME280;5719;42.714;23.732;2023-12-14T06:40:48;93456.19;;;6.14;100.00
11329;BME280;5719;42.714;23.732;2023-12-14T06:43:15;93452.50;;;6.18;100.00
11329;BME280;5719;42.714;23.732;2023-12-14T06:45:42;93466.75;;;6.22;100.00
11329;BME280;5719;42.714;23.732;2023-12-14T06:48:08;93458.81;;;6.25;100.00
11329;BME280;5719;42.714;23.732;2023-12-14T06:50:37;93470.75;;;6.26;100.00
11329;BME280;5719;42.714;23.732;2023-12-14T06:53:04;93477.75;;;6.35;100.00
11329;BME280;5719;42.714;23.732;2023-12-14T06:55:31;93462.88;;;6.40;100.00
11329;BME280;5719;42.714;23.732;2023-12-14T06:57:57;93472.22;;;6.52;100.00
11329;BME280;5719;42.714;23.732;2023-12-14T07:00:24;93473.88;;;6.53;100.00
11329;BME280;5719;42.714;23.732;2023-12-14T07:02:51;93473.44;;;6.59;100.00
11329;BME280;5719;42.714;23.732;2023-12-14T07:08:41;93473.72;;;6.78;100.00
11329;BME280;5719;42.714;23.732;2023-12-14T07:11:08;93464.19;;;6.92;100.00
11329;BME280;5719;42.714;23.732;2023-12-14T07:13:35;93465.59;;;7.07;100.00
11329;BME280;5719;42.714;23.732;2023-12-14T07:16:05;93446.84;;;7.17;100.00
11329;BME280;5719;42.714;23.732;2023-12-14T07:18:33;93464.03;;;7.28;100.00
11329;BME280;5719;42.714;23.732;2023-12-14T07:21:00;93473.94;;;7.44;100.00
11329;BME280;5719;42.714;23.732;2023-12-14T07:23:27;93469.53;;;7.57;100.00
11329;BME280;5719;42.714;23.732;2023-12-14T07:25:56;93471.38;;;7.77;100.00
11329;BME280;5719;42.714;23.732;2023-12-14T07:28:22;93466.81;;;7.80;100.00
11329;BME280;5719;42.714;23.732;2023-12-14T07:30:50;93471.50;;;7.86;100.00
11329;BME280;5719;42.714;23.732;2023-12-14T07:33:17;93471.94;;;8.03;100.00
11329;BME280;5719;42.714;23.732;2023-12-14T07:35:43;93474.72;;;8.11;100.00
11329;BME280;5719;42.714;23.732;2023-12-14T07:38:11;93485.69;;;8.24;100.00
11329;BME280;5719;42.714;23.732;2023-12-14T07:40:37;93490.16;;;8.33;100.00
11329;BME280;5719;42.714;23.732;2023-12-14T07:43:07;93489.19;;;8.45;100.00
11329;BME280;5719;42.714;23.732;2023-12-14T07:45:34;93488.00;;;8.49;100.00
11329;BME280;5719;42.714;23.732;2023-12-14T07:48:01;93485.53;;;8.59;100.00
11329;BME280;5719;42.714;23.732;2023-12-14T07:50:29;93466.22;;;8.53;100.00
11329;BME280;5719;42.714;23.732;2023-12-14T07:52:56;93474.16;;;8.61;100.00
11329;BME280;5719;42.714;23.732;2023-12-14T07:55:23;93492.09;;;8.83;100.00
11329;BME280;5719;42.714;23.732;2023-12-14T07:57:50;93481.38;;;8.99;99.77
11329;BME280;5719;42.714;23.732;2023-12-14T08:00:18;93480.47;;;9.10;98.80
11329;BME280;5719;42.714;23.732;2023-12-14T08:02:45;93479.97;;;9.16;100.00
11329;BME280;5719;42.714;23.732;2023-12-14T08:05:12;93490.03;;;9.40;100.00
11329;BME280;5719;42.714;23.732;2023-12-14T08:07:39;93492.41;;;9.52;99.62
11329;BME280;5719;42.714;23.732;2023-12-14T08:10:07;93482.13;;;9.62;98.60
11329;BME280;5719;42.714;23.732;2023-12-14T08:12:37;93493.34;;;9.81;95.82
11329;BME280;5719;42.714;23.732;2023-12-14T08:15:10;93504.31;;;10.04;95.27
11329;BME280;5719;42.714;23.732;2023-12-14T08:17:39;93491.88;;;10.19;94.16
11329;BME280;5719;42.714;23.732;2023-12-14T08:20:07;93480.22;;;10.34;91.63
11329;BME280;5719;42.714;23.732;2023-12-14T08:22:36;93485.84;;;10.58;86.74
11329;BME280;5719;42.714;23.732;2023-12-14T08:25:03;93499.59;;;10.88;83.45
11329;BME280;5719;42.714;23.732;2023-12-14T08:27:30;93493.06;;;11.22;81.51
11329;BME280;5719;42.714;23.732;2023-12-14T08:29:57;93493.78;;;11.51;79.06
11329;BME280;5719;42.714;23.732;2023-12-14T08:32:24;93487.91;;;11.68;78.59
11329;BME280;5719;42.714;23.732;2023-12-14T08:34:53;93500.56;;;11.81;77.31
11329;BME280;5719;42.714;23.732;2023-12-14T08:37:20;93490.44;;;11.88;77.47
11329;BME280;5719;42.714;23.732;2023-12-14T08:39:47;93494.25;;;11.93;79.31
11329;BME280;5719;42.714;23.732;2023-12-14T08:42:14;93496.84;;;11.93;78.20
11329;BME280;5719;42.714;23.732;2023-12-14T08:44:41;93505.19;;;11.87;80.46
11329;BME280;5719;42.714;23.732;2023-12-14T08:47:08;93494.69;;;11.89;80.79
11329;BME280;5719;42.714;23.732;2023-12-14T08:49:35;93489.53;;;11.79;81.42
11329;BME280;5719;42.714;23.732;2023-12-14T08:52:05;93501.66;;;11.78;81.06
11329;BME280;5719;42.714;23.732;2023-12-14T08:54:33;93500.03;;;11.68;80.18
11329;BME280;5719;42.714;23.732;2023-12-14T08:56:59;93501.97;;;11.75;81.51
11329;BME280;5719;42.714;23.732;2023-12-14T08:59:27;93504.50;;;11.85;81.91
11329;BME280;5719;42.714;23.732;2023-12-14T09:01:54;93499.44;;;11.93;79.96
11329;BME280;5719;42.714;23.732;2023-12-14T09:04:21;93490.28;;;11.99;76.59
11329;BME280;5719;42.714;23.732;2023-12-14T09:06:48;93491.25;;;11.98;76.11
11329;BME280;5719;42.714;23.732;2023-12-14T09:09:16;93499.69;;;12.00;76.32
11329;BME280;5719;42.714;23.732;2023-12-14T09:11:44;93510.03;;;12.00;76.22
11329;BME280;5719;42.714;23.732;2023-12-14T09:14:11;93496.81;;;12.03;75.63
11329;BME280;5719;42.714;23.732;2023-12-14T09:16:37;93494.19;;;12.12;74.55
11329;BME280;5719;42.714;23.732;2023-12-14T09:19:04;93476.41;;;12.17;73.55
11329;BME280;5719;42.714;23.732;2023-12-14T09:21:31;93485.50;;;12.31;73.84
11329;BME280;5719;42.714;23.732;2023-12-14T09:23:58;93484.56;;;12.50;74.04
11329;BME280;5719;42.714;23.732;2023-12-14T09:26:26;93470.66;;;12.68;73.08
11329;BME280;5719;42.714;23.732;2023-12-14T09:28:53;93467.84;;;12.79;72.67
11329;BME280;5719;42.714;23.732;2023-12-14T09:31:20;93451.53;;;12.87;72.40
11329;BME280;5719;42.714;23.732;2023-12-14T09:33:47;93453.69;;;12.92;71.67
11329;BME280;5719;42.714;23.732;2023-12-14T09:36:14;93462.59;;;13.07;71.47
11329;BME280;5719;42.714;23.732;2023-12-14T09:38:41;93443.69;;;13.14;71.48
11329;BME280;5719;42.714;23.732;2023-12-14T09:41:07;93434.59;;;13.36;70.39
11329;BME280;5719;42.714;23.732;2023-12-14T09:43:35;93445.03;;;13.44;70.82
11329;BME280;5719;42.714;23.732;2023-12-14T09:46:03;93448.16;;;13.48;71.20
11329;BME280;5719;42.714;23.732;2023-12-14T09:48:31;93473.41;;;13.63;70.97
11329;BME280;5719;42.714;23.732;2023-12-14T09:50:58;93466.78;;;13.69;70.34
11329;BME280;5719;42.714;23.732;2023-12-14T09:53:25;93458.22;;;13.77;69.36
11329;BME280;5719;42.714;23.732;2023-12-14T09:55:52;93454.97;;;13.74;69.62
11329;BME280;5719;42.714;23.732;2023-12-14T09:58:19;93455.97;;;13.82;70.83
11329;BME280;5719;42.714;23.732;2023-12-14T10:00:47;93475.16;;;13.89;69.77
11329;BME280;5719;42.714;23.732;2023-12-14T10:03:21;93476.66;;;13.91;68.27
11329;BME280;5719;42.714;23.732;2023-12-14T10:05:48;93476.16;;;13.96;69.81
11329;BME280;5719;42.714;23.732;2023-12-14T10:26:16;93490.41;;;14.09;69.05
11329;BME280;5719;42.714;23.732;2023-12-14T10:28:43;93473.63;;;14.04;69.24
11329;BME280;5719;42.714;23.732;2023-12-14T10:31:10;93471.66;;;13.98;69.20
11329;BME280;5719;42.714;23.732;2023-12-14T10:33:37;93472.88;;;13.86;70.72
11329;BME280;5719;42.714;23.732;2023-12-14T10:36:06;93479.81;;;13.77;70.14
11329;BME280;5719;42.714;23.732;2023-12-14T10:38:43;93479.81;;;13.77;71.08
11329;BME280;5719;42.714;23.732;2023-12-14T10:41:11;93456.41;;;13.69;72.79
11329;BME280;5719;42.714;23.732;2023-12-14T10:43:41;93464.03;;;13.70;72.36
11329;BME280;5719;42.714;23.732;2023-12-14T10:46:10;93470.22;;;13.77;71.98
11329;BME280;5719;42.714;23.732;2023-12-14T10:48:37;93462.44;;;13.77;71.37
11329;BME280;5719;42.714;23.732;2023-12-14T10:51:07;93464.22;;;13.77;71.87
11329;BME280;5719;42.714;23.732;2023-12-14T10:53:34;93477.38;;;13.75;71.39
11329;BME280;5719;42.714;23.732;2023-12-14T10:56:03;93462.81;;;13.83;71.34
11329;BME280;5719;42.714;23.732;2023-12-14T10:58:46;93462.41;;;13.69;71.74
11329;BME280;5719;42.714;23.732;2023-12-14T11:01:14;93486.88;;;13.67;71.65
11329;BME280;5719;42.714;23.732;2023-12-14T11:03:42;93473.72;;;13.60;71.50
11329;BME280;5719;42.714;23.732;2023-12-14T11:06:30;93487.88;;;13.66;73.16
11329;BME280;5719;42.714;23.732;2023-12-14T11:08:59;93490.09;;;13.61;71.42
11329;BME280;5719;42.714;23.732;2023-12-14T11:11:29;93482.19;;;13.70;71.48
11329;BME280;5719;42.714;23.732;2023-12-14T11:13:58;93490.63;;;13.64;71.84
11329;BME280;5719;42.714;23.732;2023-12-14T11:16:26;93505.69;;;13.61;71.73
11329;BME280;5719;42.714;23.732;2023-12-14T11:19:29;93503.28;;;13.67;71.13
11329;BME280;5719;42.714;23.732;2023-12-14T11:22:09;93513.88;;;13.48;71.21
11329;BME280;5719;42.714;23.732;2023-12-14T11:24:41;93533.69;;;13.49;71.93
11329;BME280;5719;42.714;23.732;2023-12-14T11:27:09;93540.88;;;13.20;75.00
11329;BME280;5719;42.714;23.732;2023-12-14T11:40:14;93572.50;;;11.97;75.84
11329;BME280;5719;42.714;23.732;2023-12-14T11:42:42;93569.94;;;11.68;77.65
11329;BME280;5719;42.714;23.732;2023-12-14T11:45:11;93587.25;;;11.67;78.49
11329;BME280;5719;42.714;23.732;2023-12-14T11:47:38;93583.44;;;11.62;78.60
11329;BME280;5719;42.714;23.732;2023-12-14T11:50:06;93561.28;;;11.40;80.33
11329;BME280;5719;42.714;23.732;2023-12-14T11:52:35;93567.38;;;11.49;80.90
11329;BME280;5719;42.714;23.732;2023-12-14T11:55:05;93554.03;;;11.34;81.84
11329;BME280;5719;42.714;23.732;2023-12-14T11:57:33;93564.66;;;11.12;84.09
11329;BME280;5719;42.714;23.732;2023-12-14T12:00:01;93551.47;;;10.96;85.73
11329;BME280;5719;42.714;23.732;2023-12-14T12:02:28;93570.22;;;10.88;87.56
11329;BME280;5719;42.714;23.732;2023-12-14T12:04:55;93567.09;;;10.85;88.98
11329;BME280;5719;42.714;23.732;2023-12-14T12:07:22;93561.50;;;10.79;90.26
11329;BME280;5719;42.714;23.732;2023-12-14T12:09:49;93543.41;;;10.70;91.41
11329;BME280;5719;42.714;23.732;2023-12-14T12:12:17;93565.28;;;10.75;92.08
11329;BME280;5719;42.714;23.732;2023-12-14T12:14:45;93575.25;;;10.80;93.16
11329;BME280;5719;42.714;23.732;2023-12-14T12:31:25;93620.78;;;10.31;99.75
11329;BME280;5719;42.714;23.732;2023-12-14T12:33:52;93613.31;;;10.28;99.88
11329;BME280;5719;42.714;23.732;2023-12-14T12:36:19;93620.69;;;10.33;99.42
11329;BME280;5719;42.714;23.732;2023-12-14T12:38:46;93616.25;;;10.14;98.64
11329;BME280;5719;42.714;23.732;2023-12-14T12:41:13;93616.84;;;10.07;98.38
11329;BME280;5719;42.714;23.732;2023-12-14T12:43:40;93618.75;;;10.05;98.36
11329;BME280;5719;42.714;23.732;2023-12-14T12:46:07;93619.03;;;10.11;97.25
11329;BME280;5719;42.714;23.732;2023-12-14T12:48:35;93612.44;;;10.18;96.34
11329;BME280;5719;42.714;23.732;2023-12-14T12:51:03;93599.88;;;10.14;95.99
11329;BME280;5719;42.714;23.732;2023-12-14T12:53:29;93618.22;;;10.11;96.35
11329;BME280;5719;42.714;23.732;2023-12-14T12:55:58;93616.53;;;10.21;95.88
11329;BME280;5719;42.714;23.732;2023-12-14T12:58:25;93606.81;;;10.13;95.15
11329;BME280;5719;42.714;23.732;2023-12-14T13:00:51;93604.19;;;10.04;95.38
11329;BME280;5719;42.714;23.732;2023-12-14T13:03:18;93590.97;;;9.97;95.82
11329;BME280;5719;42.714;23.732;2023-12-14T13:05:46;93604.78;;;9.87;96.95
11329;BME280;5719;42.714;23.732;2023-12-14T13:08:14;93604.31;;;10.02;97.07
11329;BME280;5719;42.714;23.732;2023-12-14T13:10:40;93620.06;;;9.99;96.24
11329;BME280;5719;42.714;23.732;2023-12-14T13:13:07;93630.34;;;9.90;97.38
11329;BME280;5719;42.714;23.732;2023-12-14T13:15:34;93628.81;;;9.66;99.07
11329;BME280;5719;42.714;23.732;2023-12-14T13:18:02;93627.78;;;9.69;99.38
11329;BME280;5719;42.714;23.732;2023-12-14T13:20:29;93632.53;;;9.73;98.97
11329;BME280;5719;42.714;23.732;2023-12-14T13:23:00;93629.34;;;9.60;98.63
11329;BME280;5719;42.714;23.732;2023-12-14T13:25:27;93629.38;;;9.49;99.73
11329;BME280;5719;42.714;23.732;2023-12-14T13:27:54;93619.28;;;9.57;100.00
11329;BME280;5719;42.714;23.732;2023-12-14T13:30:21;93625.00;;;9.61;100.00
11329;BME280;5719;42.714;23.732;2023-12-14T13:32:48;93649.56;;;9.44;99.60
11329;BME280;5719;42.714;23.732;2023-12-14T13:35:15;93643.06;;;9.29;100.00
11329;BME280;5719;42.714;23.732;2023-12-14T13:37:42;93647.00;;;9.44;100.00
11329;BME280;5719;42.714;23.732;2023-12-14T13:40:10;93634.28;;;9.31;100.00
11329;BME280;5719;42.714;23.732;2023-12-14T13:42:38;93639.59;;;9.19;100.00
11329;BME280;5719;42.714;23.732;2023-12-14T13:45:06;93645.00;;;9.16;100.00
11329;BME280;5719;42.714;23.732;2023-12-14T13:47:33;93648.50;;;9.15;100.00
11329;BME280;5719;42.714;23.732;2023-12-14T13:50:00;93654.19;;;8.98;100.00
11329;BME280;5719;42.714;23.732;2023-12-14T13:52:29;93651.75;;;8.85;100.00
11329;BME280;5719;42.714;23.732;2023-12-14T13:54:56;93638.75;;;8.86;100.00
11329;BME280;5719;42.714;23.732;2023-12-14T13:57:26;93645.53;;;8.88;100.00
11329;BME280;5719;42.714;23.732;2023-12-14T13:59:52;93640.25;;;8.89;100.00
11329;BME280;5719;42.714;23.732;2023-12-14T14:02:20;93645.97;;;8.93;100.00
11329;BME280;5719;42.714;23.732;2023-12-14T14:04:48;93646.69;;;8.95;100.00
11329;BME280;5719;42.714;23.732;2023-12-14T14:07:17;93643.66;;;8.90;100.00
11329;BME280;5719;42.714;23.732;2023-12-14T14:09:44;93658.94;;;8.70;100.00
11329;BME280;5719;42.714;23.732;2023-12-14T14:12:11;93663.72;;;8.64;100.00
11329;BME280;5719;42.714;23.732;2023-12-14T14:14:39;93652.63;;;8.52;100.00
11329;BME280;5719;42.714;23.732;2023-12-14T14:17:06;93657.28;;;8.58;100.00
11329;BME280;5719;42.714;23.732;2023-12-14T14:19:33;93662.22;;;8.50;100.00
11329;BME280;5719;42.714;23.732;2023-12-14T14:22:05;93665.84;;;8.48;100.00
11329;BME280;5719;42.714;23.732;2023-12-14T14:24:32;93663.03;;;8.28;100.00
11329;BME280;5719;42.714;23.732;2023-12-14T14:26:59;93664.19;;;8.35;100.00
11329;BME280;5719;42.714;23.732;2023-12-14T14:29:25;93672.22;;;8.20;100.00
11329;BME280;5719;42.714;23.732;2023-12-14T14:31:54;93675.03;;;8.17;100.00
11329;BME280;5719;42.714;23.732;2023-12-14T14:34:20;93671.34;;;8.43;100.00
11329;BME280;5719;42.714;23.732;2023-12-14T14:36:47;93673.22;;;8.41;100.00
11329;BME280;5719;42.714;23.732;2023-12-14T14:39:14;93689.03;;;8.48;100.00
11329;BME280;5719;42.714;23.732;2023-12-14T14:41:43;93687.63;;;8.44;100.00
11329;BME280;5719;42.714;23.732;2023-12-14T14:44:10;93681.75;;;8.53;100.00
11329;BME280;5719;42.714;23.732;2023-12-14T14:46:38;93678.13;;;8.33;100.00
11329;BME280;5719;42.714;23.732;2023-12-14T14:49:06;93686.41;;;8.14;100.00
11329;BME280;5719;42.714;23.732;2023-12-14T14:51:33;93679.38;;;8.27;100.00
11329;BME280;5719;42.714;23.732;2023-12-14T14:54:00;93679.06;;;8.32;100.00
11329;BME280;5719;42.714;23.732;2023-12-14T14:56:26;93682.75;;;8.17;100.00
11329;BME280;5719;42.714;23.732;2023-12-14T14:58:54;93703.34;;;8.17;100.00
11329;BME280;5719;42.714;23.732;2023-12-14T15:01:21;93722.78;;;8.10;100.00
11329;BME280;5719;42.714;23.732;2023-12-14T15:03:48;93701.56;;;7.95;100.00
11329;BME280;5719;42.714;23.732;2023-12-14T15:06:16;93689.19;;;8.00;100.00
11329;BME280;5719;42.714;23.732;2023-12-14T15:08:49;93681.69;;;7.86;100.00
11329;BME280;5719;42.714;23.732;2023-12-14T15:11:16;93692.78;;;7.86;100.00
11329;BME280;5719;42.714;23.732;2023-12-14T15:13:44;93684.81;;;7.78;100.00
11329;BME280;5719;42.714;23.732;2023-12-14T15:16:11;93690.59;;;7.58;100.00
11329;BME280;5719;42.714;23.732;2023-12-14T15:18:38;93697.03;;;7.64;100.00
11329;BME280;5719;42.714;23.732;2023-12-14T15:21:07;93684.50;;;7.59;100.00